Time;durP1;ratioP1;P1;durP2;ratioP2;P2;SDS_P1;SDS_P2;PMS_P1;PMS_P2;Temp;Humidity;BMP_temperature;BMP_pressure;BME280_temperature;BME280_humidity;BME280_pressure;Samples;Min_cycle;Max_cycle;Signal;HPM_P1;HPM_P2
2023/09/19 00:01:45;;;;;;;15.15;2.45;;;14.10;99.90;;;;;;4951048;28;20056;-70
2023/09/19 00:04:12;;;;;;;12.73;2.00;;;14.10;99.90;;;;;;4912633;28;138331;-71
2023/09/19 00:06:39;;;;;;;9.45;2.28;;;14.00;99.90;;;;;;4953573;28;20043;-72
2023/09/19 00:09:10;;;;;;;10.30;1.73;;;14.00;99.90;;;;;;4904360;28;198437;-71
2023/09/19 00:11:38;;;;;;;14.70;2.03;;;14.00;99.90;;;;;;4950632;28;20043;-71
2023/09/19 00:14:08;;;;;;;12.85;2.13;;;13.90;99.90;;;;;;4919613;28;20051;-70
2023/09/19 00:16:35;;;;;;;15.68;2.53;;;13.90;99.90;;;;;;4948132;28;20057;-70
2023/09/19 00:19:03;;;;;;;14.80;2.45;;;13.90;99.90;;;;;;4912202;28;32035;-70
2023/09/19 00:21:31;;;;;;;11.25;2.15;;;13.80;99.90;;;;;;4947566;28;20524;-72
2023/09/19 00:23:57;;;;;;;13.38;2.33;;;13.80;99.90;;;;;;4924920;28;24936;-71
2023/09/19 00:26:24;;;;;;;14.07;2.22;;;13.80;99.90;;;;;;4951214;28;20074;-70
2023/09/19 00:28:52;;;;;;;12.68;2.22;;;13.70;99.90;;;;;;4912743;28;100019;-70
2023/09/19 00:31:18;;;;;;;13.35;2.10;;;13.70;99.90;;;;;;4955391;28;20054;-71
2023/09/19 00:33:44;;;;;;;14.25;2.40;;;13.70;99.90;;;;;;4916193;28;20490;-72
2023/09/19 00:36:10;;;;;;;15.02;2.50;;;13.70;99.90;;;;;;4948439;28;20086;-71
2023/09/19 00:38:36;;;;;;;14.23;2.42;;;13.60;99.90;;;;;;4892781;28;208490;-71
2023/09/19 00:41:03;;;;;;;13.93;2.30;;;13.60;99.90;;;;;;4939651;28;20054;-70
2023/09/19 00:43:29;;;;;;;12.75;2.35;;;13.60;99.90;;;;;;4903496;28;146251;-71
2023/09/19 00:45:56;;;;;;;13.98;2.38;;;13.60;99.90;;;;;;4940574;29;20059;-71
2023/09/19 00:48:24;;;;;;;11.82;1.98;;;13.60;99.90;;;;;;4908499;28;214508;-71
2023/09/19 00:50:51;;;;;;;17.13;2.33;;;13.60;99.90;;;;;;4943419;28;20424;-71
2023/09/19 00:53:23;;;;;;;13.75;2.42;;;13.60;99.90;;;;;;4900156;28;90651;-71
2023/09/19 00:55:51;;;;;;;17.85;2.45;;;13.60;99.90;;;;;;4948057;28;20046;-71
2023/09/19 00:58:18;;;;;;;16.67;2.65;;;13.60;99.90;;;;;;4902304;28;208209;-69
2023/09/19 01:00:44;;;;;;;18.42;2.45;;;13.60;99.90;;;;;;4935932;28;20067;-70
2023/09/19 01:03:13;;;;;;;18.08;2.42;;;13.50;99.90;;;;;;4905426;28;98575;-71
2023/09/19 01:05:39;;;;;;;12.25;2.10;;;13.50;99.90;;;;;;4944314;28;20035;-70
2023/09/19 01:08:06;;;;;;;15.98;2.50;;;13.50;99.90;;;;;;4907339;28;187018;-70
2023/09/19 01:10:33;;;;;;;18.05;2.88;;;13.50;99.90;;;;;;4959253;28;20067;-69
2023/09/19 01:13:08;;;;;;;13.95;2.33;;;13.40;99.90;;;;;;4905024;28;20945;-70
2023/09/19 01:16:16;;;;;;;17.95;2.50;;;13.50;99.90;;;;;;4939561;28;20502;-70
2023/09/19 01:19:35;;;;;;;16.23;2.53;;;13.40;99.90;;;;;;4925726;28;20169;-69
2023/09/19 01:22:21;;;;;;;16.52;2.53;;;13.40;99.90;;;;;;4964408;28;20100;-70
2023/09/19 01:25:17;;;;;;;17.92;2.90;;;13.40;99.90;;;;;;4899661;28;34256;-70
2023/09/19 01:28:21;;;;;;;16.73;2.70;;;13.40;99.90;;;;;;4951210;28;20057;-71
2023/09/19 01:30:54;;;;;;;16.13;3.25;;;13.40;99.90;;;;;;4937415;28;20050;-70
2023/09/19 01:33:20;;;;;;;14.57;2.40;;;13.30;99.90;;;;;;4940507;28;20159;-70
2023/09/19 01:35:46;;;;;;;20.42;2.65;;;13.30;99.90;;;;;;4979742;28;20065;-70
2023/09/19 01:38:14;;;;;;;16.10;2.88;;;13.30;99.90;;;;;;4918854;28;25536;-70
2023/09/19 01:40:47;;;;;;;17.65;2.28;;;13.20;99.90;;;;;;4950697;28;20088;-71
2023/09/19 01:43:29;;;;;;;14.25;2.38;;;13.20;99.90;;;;;;4926652;28;35549;-70
2023/09/19 01:46:16;;;;;;;15.63;2.30;;;13.20;99.90;;;;;;4964895;28;20062;-71
2023/09/19 01:49:20;;;;;;;13.55;2.30;;;13.20;99.90;;;;;;4903828;28;187034;-71
2023/09/19 01:52:02;;;;;;;14.98;2.70;;;13.20;99.90;;;;;;4971132;28;20057;-69
2023/09/19 01:54:37;;;;;;;20.38;3.08;;;13.20;99.90;;;;;;4905940;28;226406;-71
2023/09/19 01:57:28;;;;;;;16.48;2.70;;;13.20;99.90;;;;;;4952167;28;20058;-69
2023/09/19 02:00:06;;;;;;;13.40;2.58;;;13.10;99.90;;;;;;4903634;28;171380;-69
2023/09/19 02:02:39;;;;;;;11.35;2.08;;;13.10;99.90;;;;;;4951336;28;20086;-70
2023/09/19 02:05:06;;;;;;;12.50;2.28;;;13.10;99.90;;;;;;4916038;28;49593;-70
2023/09/19 02:07:32;;;;;;;17.40;2.58;;;13.10;99.90;;;;;;4938836;28;20058;-69
2023/09/19 02:10:00;;;;;;;18.17;2.50;;;13.00;99.90;;;;;;4925001;28;253849;-69
2023/09/19 02:12:27;;;;;;;16.13;2.63;;;13.00;99.90;;;;;;4945404;28;20066;-70
2023/09/19 02:14:53;;;;;;;17.27;3.03;;;13.00;99.90;;;;;;4911667;28;81174;-70
2023/09/19 02:17:19;;;;;;;16.63;2.58;;;13.00;99.90;;;;;;4945250;28;20059;-71
2023/09/19 02:19:45;;;;;;;16.90;2.45;;;13.00;99.90;;;;;;4920561;28;32508;-70
2023/09/19 02:22:11;;;;;;;17.27;2.97;;;12.90;99.90;;;;;;4945109;28;20043;-70
2023/09/19 02:24:38;;;;;;;12.32;2.88;;;12.90;99.90;;;;;;4895949;28;20056;-69
2023/09/19 02:27:05;;;;;;;11.73;2.42;;;12.80;99.90;;;;;;4948127;28;20058;-70
2023/09/19 02:29:32;;;;;;;15.82;2.90;;;12.80;99.90;;;;;;4909661;28;20039;-71
2023/09/19 02:31:58;;;;;;;17.55;2.38;;;12.80;99.90;;;;;;4945904;28;20055;-70
2023/09/19 02:34:25;;;;;;;18.42;3.00;;;12.80;99.90;;;;;;4907656;28;20046;-69
2023/09/19 02:36:53;;;;;;;19.58;2.78;;;12.80;99.90;;;;;;4941502;28;20047;-70
2023/09/19 02:39:19;;;;;;;17.90;3.10;;;12.80;99.90;;;;;;4896411;28;96434;-70
2023/09/19 02:41:46;;;;;;;14.80;3.00;;;12.80;99.90;;;;;;4945109;28;20051;-70
2023/09/19 02:44:12;;;;;;;17.40;2.75;;;12.80;99.90;;;;;;4902743;28;82987;-72
2023/09/19 02:46:38;;;;;;;14.20;2.42;;;12.80;99.90;;;;;;4950679;28;20039;-74
2023/09/19 02:49:07;;;;;;;17.40;3.33;;;12.80;99.90;;;;;;4902665;28;113805;-69
2023/09/19 02:51:34;;;;;;;13.77;2.53;;;12.70;99.90;;;;;;4946190;28;20057;-71
2023/09/19 02:54:00;;;;;;;11.43;2.35;;;12.80;99.90;;;;;;4891064;28;104253;-70
2023/09/19 02:56:26;;;;;;;22.20;2.58;;;12.80;99.90;;;;;;4946617;28;20066;-70
2023/09/19 02:58:53;;;;;;;16.25;2.58;;;12.70;99.90;;;;;;4908259;28;88043;-70
2023/09/19 03:01:19;;;;;;;16.55;2.72;;;12.70;99.90;;;;;;4953425;28;20051;-70
2023/09/19 03:03:45;;;;;;;15.00;2.70;;;12.70;99.90;;;;;;4915292;28;20069;-70
2023/09/19 03:06:12;;;;;;;13.68;2.40;;;12.80;99.90;;;;;;4946378;28;20043;-70
2023/09/19 03:08:39;;;;;;;17.58;2.72;;;12.80;99.90;;;;;;4917597;28;20525;-69
2023/09/19 03:11:07;;;;;;;14.68;2.63;;;12.80;99.90;;;;;;4957468;28;20070;-71
2023/09/19 03:13:33;;;;;;;12.93;2.30;;;12.80;99.90;;;;;;4884966;28;192037;-70
2023/09/19 03:15:59;;;;;;;16.42;2.88;;;12.90;99.90;;;;;;4939465;28;20043;-70
2023/09/19 03:18:26;;;;;;;13.85;2.80;;;12.90;99.90;;;;;;4913664;28;20063;-71
2023/09/19 03:20:54;;;;;;;14.30;2.70;;;12.90;99.90;;;;;;4956267;28;20536;-71
2023/09/19 03:23:21;;;;;;;11.65;2.58;;;13.00;99.90;;;;;;4903001;28;50523;-71
2023/09/19 03:25:47;;;;;;;14.68;2.42;;;13.00;99.90;;;;;;4938605;28;20466;-69
2023/09/19 03:28:15;;;;;;;13.98;2.75;;;13.00;99.90;;;;;;4896258;28;20743;-70
2023/09/19 03:30:42;;;;;;;14.82;2.47;;;13.00;99.90;;;;;;4931385;28;20059;-69
2023/09/19 03:33:08;;;;;;;12.18;2.50;;;13.10;99.90;;;;;;4905141;28;202061;-70
2023/09/19 03:35:34;;;;;;;15.57;2.40;;;13.10;99.90;;;;;;4938922;28;20055;-70
2023/09/19 03:38:00;;;;;;;10.95;2.40;;;13.10;99.90;;;;;;4904509;28;27979;-69
2023/09/19 03:40:26;;;;;;;15.20;2.60;;;13.00;99.90;;;;;;4950265;28;20062;-69
2023/09/19 03:42:52;;;;;;;13.45;2.35;;;13.10;99.90;;;;;;4918423;28;20058;-69
2023/09/19 03:45:18;;;;;;;14.90;2.70;;;13.10;99.90;;;;;;4927248;28;228550;-71
2023/09/19 03:47:47;;;;;;;9.85;2.03;;;13.10;99.90;;;;;;4920672;28;20446;-70
2023/09/19 03:50:17;;;;;;;15.65;2.30;;;13.10;99.90;;;;;;4937133;28;33664;-70
2023/09/19 03:52:44;;;;;;;13.57;2.13;;;13.10;99.90;;;;;;4892436;28;258546;-72
2023/09/19 03:55:10;;;;;;;13.40;2.53;;;13.10;99.90;;;;;;4943320;28;20410;-71
2023/09/19 03:57:37;;;;;;;16.83;2.92;;;13.00;99.90;;;;;;4918786;28;20059;-71
2023/09/19 04:00:05;;;;;;;12.57;2.20;;;13.00;99.90;;;;;;4921191;28;81119;-69
2023/09/19 04:02:33;;;;;;;16.83;2.50;;;13.10;99.90;;;;;;4943868;28;20055;-71
2023/09/19 04:04:59;;;;;;;13.07;2.55;;;13.10;99.90;;;;;;4915923;28;126061;-71
2023/09/19 04:07:28;;;;;;;13.55;2.45;;;13.10;99.90;;;;;;4942449;28;20052;-71
2023/09/19 04:09:55;;;;;;;12.38;2.22;;;13.10;99.90;;;;;;4872813;28;235487;-70
2023/09/19 04:12:21;;;;;;;13.90;2.85;;;13.10;99.90;;;;;;4948917;28;20446;-70
2023/09/19 04:14:47;;;;;;;13.40;2.65;;;13.20;99.90;;;;;;4921926;28;20051;-69
2023/09/19 04:17:13;;;;;;;15.15;2.70;;;13.20;99.90;;;;;;4944694;28;20051;-71
2023/09/19 04:19:40;;;;;;;11.98;2.33;;;13.20;99.90;;;;;;4898519;28;220377;-70
2023/09/19 04:22:07;;;;;;;14.88;2.53;;;13.30;99.90;;;;;;4949474;28;20059;-70
2023/09/19 04:24:33;;;;;;;12.07;2.33;;;13.20;99.90;;;;;;4874225;28;20060;-70
2023/09/19 04:26:59;;;;;;;14.88;2.33;;;13.30;99.90;;;;;;4945530;28;20062;-69
2023/09/19 04:29:29;;;;;;;18.17;2.70;;;13.30;99.90;;;;;;4900939;28;251674;-73
2023/09/19 04:31:59;;;;;;;17.38;2.28;;;13.30;99.90;;;;;;4943767;28;20514;-71
2023/09/19 04:34:25;;;;;;;11.98;2.22;;;13.30;99.90;;;;;;4918545;28;43382;-72
2023/09/19 04:36:52;;;;;;;12.15;2.53;;;13.20;99.90;;;;;;4948656;28;20061;-72
2023/09/19 04:39:18;;;;;;;12.00;2.40;;;13.20;99.90;;;;;;4916682;28;20051;-72
2023/09/19 04:41:47;;;;;;;14.93;2.47;;;13.20;99.90;;;;;;4946194;28;20065;-72
2023/09/19 04:44:14;;;;;;;16.38;2.83;;;13.20;99.90;;;;;;4893382;28;20055;-72
2023/09/19 04:46:40;;;;;;;10.95;2.13;;;13.20;99.90;;;;;;4946470;28;20054;-73
2023/09/19 04:49:06;;;;;;;13.95;2.70;;;13.20;99.90;;;;;;4910186;28;29129;-71
2023/09/19 04:51:34;;;;;;;10.88;1.98;;;13.20;99.90;;;;;;4944448;28;20051;-72
2023/09/19 04:54:00;;;;;;;16.52;2.70;;;13.20;99.90;;;;;;4889066;28;20039;-72
2023/09/19 04:56:28;;;;;;;11.63;2.47;;;13.20;99.90;;;;;;4949699;28;20071;-73
2023/09/19 04:58:54;;;;;;;17.88;2.78;;;13.20;99.90;;;;;;4907007;28;103862;-72
2023/09/19 05:01:22;;;;;;;15.25;2.90;;;13.10;99.90;;;;;;4951291;28;20059;-71
2023/09/19 05:03:52;;;;;;;17.05;2.72;;;13.10;99.90;;;;;;4911901;28;143558;-71
2023/09/19 05:06:20;;;;;;;19.73;2.67;;;13.10;99.90;;;;;;4954240;28;20059;-71
2023/09/19 05:08:51;;;;;;;14.40;2.70;;;13.10;99.90;;;;;;4911153;28;219513;-71
2023/09/19 05:11:21;;;;;;;14.43;2.40;;;13.10;99.90;;;;;;4929872;28;20055;-71
2023/09/19 05:13:49;;;;;;;13.63;2.80;;;13.10;99.90;;;;;;4909752;28;20465;-72
2023/09/19 05:16:16;;;;;;;14.25;2.50;;;13.00;99.90;;;;;;4957215;28;20051;-72
2023/09/19 05:18:42;;;;;;;13.60;2.60;;;13.00;99.90;;;;;;4903031;28;172842;-70
2023/09/19 05:21:08;;;;;;;17.58;3.15;;;13.10;99.90;;;;;;4945719;28;20660;-71
2023/09/19 05:23:34;;;;;;;12.65;2.50;;;13.00;99.90;;;;;;4900193;28;20055;-72
2023/09/19 05:26:01;;;;;;;19.42;2.75;;;13.00;99.90;;;;;;4938765;28;20055;-72
2023/09/19 05:28:27;;;;;;;15.55;2.80;;;13.00;99.90;;;;;;4919365;28;80132;-71
2023/09/19 05:30:53;;;;;;;15.57;2.70;;;13.10;99.90;;;;;;4945994;28;20082;-71
2023/09/19 05:33:20;;;;;;;12.57;2.20;;;13.10;99.90;;;;;;4903955;28;194298;-71
2023/09/19 05:35:48;;;;;;;15.70;2.90;;;13.10;99.90;;;;;;4956751;28;20062;-72
2023/09/19 05:38:15;;;;;;;17.95;2.90;;;13.20;99.90;;;;;;4901665;28;29529;-71
2023/09/19 05:40:42;;;;;;;18.27;3.03;;;13.10;99.90;;;;;;4911822;28;20502;-72
2023/09/19 05:43:11;;;;;;;17.83;2.72;;;13.20;99.90;;;;;;4909261;28;34149;-71
2023/09/19 05:45:37;;;;;;;16.88;2.70;;;13.20;99.90;;;;;;4945527;28;20058;-71
2023/09/19 05:48:15;;;;;;;14.55;2.72;;;13.20;99.90;;;;;;4901918;28;200632;-72
2023/09/19 05:50:42;;;;;;;15.00;2.17;;;13.20;99.90;;;;;;4940422;28;20082;-72
2023/09/19 05:53:11;;;;;;;18.05;2.83;;;13.20;99.90;;;;;;4891282;28;101265;-72
2023/09/19 05:55:38;;;;;;;15.35;2.95;;;13.20;99.90;;;;;;4952263;28;20055;-72
2023/09/19 05:58:04;;;;;;;14.80;2.55;;;13.20;99.90;;;;;;4901130;28;132634;-71
2023/09/19 06:00:31;;;;;;;17.83;2.88;;;13.20;99.90;;;;;;4936005;28;20683;-71
2023/09/19 06:02:58;;;;;;;17.67;2.90;;;13.20;99.90;;;;;;4903009;28;20063;-71
2023/09/19 06:05:31;;;;;;;16.55;2.70;;;13.30;99.90;;;;;;4943290;28;20039;-71
2023/09/19 06:08:00;;;;;;;17.60;2.88;;;13.30;99.90;;;;;;4901728;28;208083;-70
2023/09/19 06:10:28;;;;;;;17.38;2.97;;;13.30;99.90;;;;;;4956787;28;20051;-72
2023/09/19 06:12:55;;;;;;;17.00;3.03;;;13.30;99.90;;;;;;4910348;28;20095;-70
2023/09/19 06:15:24;;;;;;;17.02;2.85;;;13.30;99.90;;;;;;4929102;28;20058;-70
2023/09/19 06:17:55;;;;;;;17.35;2.60;;;13.30;99.90;;;;;;4903436;28;20091;-71
2023/09/19 06:20:23;;;;;;;15.02;2.95;;;13.30;99.90;;;;;;4935642;28;20513;-71
2023/09/19 06:22:49;;;;;;;16.60;3.20;;;13.40;99.90;;;;;;4913669;28;20055;-73
2023/09/19 06:25:22;;;;;;;17.13;3.13;;;13.40;99.90;;;;;;4955665;28;22284;-70
2023/09/19 06:27:51;;;;;;;17.27;2.83;;;13.50;99.90;;;;;;4923544;28;20047;-71
2023/09/19 06:30:18;;;;;;;16.23;2.90;;;13.50;99.90;;;;;;4932393;28;128131;-70
2023/09/19 06:32:44;;;;;;;14.50;2.60;;;13.60;99.90;;;;;;4909766;28;20055;-72
2023/09/19 06:35:15;;;;;;;17.75;3.00;;;13.60;99.90;;;;;;4960680;28;20047;-71
2023/09/19 06:37:43;;;;;;;14.10;3.15;;;13.60;99.90;;;;;;4931709;28;20050;-72
2023/09/19 06:40:14;;;;;;;17.02;3.13;;;13.60;99.90;;;;;;4934533;28;142425;-70
2023/09/19 06:42:41;;;;;;;16.25;2.50;;;13.80;99.90;;;;;;4908363;28;20051;-71
2023/09/19 06:45:08;;;;;;;19.98;2.90;;;13.80;99.90;;;;;;4936694;28;20043;-71
2023/09/19 06:47:35;;;;;;;20.85;3.55;;;13.90;99.90;;;;;;4934192;28;20043;-72
2023/09/19 06:50:02;;;;;;;14.18;2.95;;;13.80;99.90;;;;;;4926084;28;24623;-71
2023/09/19 06:52:28;;;;;;;15.98;2.83;;;13.80;99.90;;;;;;4949358;28;20055;-73
2023/09/19 06:54:54;;;;;;;19.27;3.42;;;13.80;99.90;;;;;;4906815;28;172484;-70
2023/09/19 06:57:21;;;;;;;21.13;3.08;;;13.90;99.90;;;;;;4944174;28;20043;-73
2023/09/19 06:59:47;;;;;;;13.85;2.70;;;13.90;99.90;;;;;;4928461;28;20054;-70
2023/09/19 07:02:13;;;;;;;14.77;3.00;;;13.90;99.90;;;;;;4948496;28;20047;-69
2023/09/19 07:04:40;;;;;;;12.60;2.55;;;13.80;99.90;;;;;;4915688;28;20047;-72
2023/09/19 07:07:08;;;;;;;16.17;3.08;;;13.80;99.90;;;;;;4949452;28;20054;-71
2023/09/19 07:09:35;;;;;;;14.98;3.15;;;13.80;99.90;;;;;;4905664;28;100276;-70
2023/09/19 07:12:01;;;;;;;14.93;2.53;;;13.90;99.90;;;;;;4949771;28;20059;-70
2023/09/19 07:14:28;;;;;;;16.25;3.15;;;13.90;99.90;;;;;;4918400;28;142421;-70
2023/09/19 07:16:54;;;;;;;17.85;2.85;;;14.00;99.90;;;;;;4947323;28;20047;-71
2023/09/19 07:19:21;;;;;;;12.40;2.60;;;14.10;99.90;;;;;;4919953;28;50039;-71
2023/09/19 07:21:50;;;;;;;18.60;2.85;;;14.20;99.90;;;;;;4942831;28;20059;-71
2023/09/19 07:24:16;;;;;;;16.33;3.08;;;14.30;99.90;;;;;;4896737;28;77586;-71
2023/09/19 07:26:42;;;;;;;20.48;3.08;;;14.40;99.90;;;;;;4957630;28;20074;-72
2023/09/19 07:29:08;;;;;;;19.27;3.22;;;14.40;99.90;;;;;;4901292;28;166851;-70
2023/09/19 07:31:34;;;;;;;16.00;2.90;;;14.40;99.90;;;;;;4945484;28;20060;-71
2023/09/19 07:34:00;;;;;;;13.80;2.83;;;14.30;99.90;;;;;;4908835;28;20063;-71
2023/09/19 07:36:29;;;;;;;18.10;2.70;;;14.40;99.90;;;;;;4938198;28;20051;-70
2023/09/19 07:38:57;;;;;;;14.68;2.65;;;14.60;99.90;;;;;;4899484;28;218863;-71
2023/09/19 07:41:24;;;;;;;15.05;3.00;;;14.90;99.90;;;;;;4952297;28;20059;-72
2023/09/19 07:43:50;;;;;;;15.35;3.45;;;15.20;99.90;;;;;;4911460;28;212108;-71
2023/09/19 07:46:16;;;;;;;19.88;2.83;;;15.10;99.90;;;;;;4945404;28;20048;-71
2023/09/19 07:48:47;;;;;;;16.27;2.65;;;15.00;99.90;;;;;;4918191;28;69058;-71
2023/09/19 07:51:15;;;;;;;16.42;2.55;;;15.20;99.90;;;;;;4934275;29;20442;-71
2023/09/19 07:53:42;;;;;;;13.80;2.63;;;15.60;99.90;;;;;;4908688;28;54053;-71
2023/09/19 07:56:09;;;;;;;16.45;3.30;;;15.90;99.90;;;;;;4956291;28;20062;-71
2023/09/19 07:58:40;;;;;;;14.02;2.80;;;16.20;99.90;;;;;;4912871;28;213766;-72
2023/09/19 08:01:07;;;;;;;12.93;2.70;;;15.90;99.90;;;;;;4948340;28;20051;-72
2023/09/19 08:03:34;;;;;;;15.68;2.90;;;15.80;99.90;;;;;;4908207;28;20066;-71
2023/09/19 08:06:01;;;;;;;15.85;2.65;;;15.50;99.90;;;;;;4949006;28;20039;-71
2023/09/19 08:08:27;;;;;;;16.33;2.55;;;15.40;99.90;;;;;;4905024;28;87863;-71
2023/09/19 08:10:56;;;;;;;18.73;2.90;;;15.20;99.90;;;;;;4954798;28;20039;-71
2023/09/19 08:13:23;;;;;;;14.63;2.42;;;15.50;99.90;;;;;;4893525;28;253785;-71
2023/09/19 08:15:50;;;;;;;11.48;2.45;;;15.70;99.90;;;;;;4948626;28;20421;-70
2023/09/19 08:18:17;;;;;;;16.58;2.75;;;15.80;99.90;;;;;;4911112;28;120752;-70
2023/09/19 08:20:49;;;;;;;13.20;2.80;;;16.20;99.90;;;;;;4957836;28;20113;-70
2023/09/19 08:23:16;;;;;;;15.57;3.00;;;16.40;99.90;;;;;;4905875;28;24184;-70
2023/09/19 08:25:42;;;;;;;14.77;2.95;;;16.50;99.90;;;;;;4937015;28;20047;-70
2023/09/19 08:28:11;;;;;;;15.85;3.25;;;16.60;99.90;;;;;;4912469;28;193052;-70
2023/09/19 08:30:40;;;;;;;15.30;2.50;;;16.50;99.90;;;;;;4958151;28;20063;-72
2023/09/19 08:33:07;;;;;;;16.20;3.27;;;16.70;99.90;;;;;;4904987;28;152333;-71
2023/09/19 08:35:33;;;;;;;15.25;2.63;;;16.70;99.90;;;;;;4947004;28;20067;-71
2023/09/19 08:38:04;;;;;;;14.50;2.70;;;16.70;99.90;;;;;;4902028;28;164619;-71
2023/09/19 08:40:33;;;;;;;17.85;3.58;;;16.70;99.90;;;;;;4943902;28;20055;-71
2023/09/19 08:43:00;;;;;;;17.38;2.90;;;16.70;99.90;;;;;;4903437;28;104820;-70
2023/09/19 08:45:28;;;;;;;16.20;3.28;;;17.00;99.90;;;;;;4949853;28;20047;-71
2023/09/19 08:48:09;;;;;;;18.92;3.28;;;17.10;99.90;;;;;;4937414;28;20044;-70
2023/09/19 08:50:43;;;;;;;16.13;3.38;;;17.10;99.90;;;;;;4938959;28;20051;-70
2023/09/19 08:53:27;;;;;;;18.40;3.20;;;17.20;99.90;;;;;;4889066;28;180708;-70
2023/09/19 08:55:56;;;;;;;16.52;3.33;;;17.10;99.90;;;;;;4940539;28;20059;-71
2023/09/19 08:58:31;;;;;;;16.15;3.10;;;17.60;99.90;;;;;;4906204;28;245888;-70
2023/09/19 09:01:00;;;;;;;14.25;3.30;;;17.60;99.90;;;;;;4956405;28;20642;-70
2023/09/19 09:03:26;;;;;;;12.82;3.13;;;17.40;99.90;;;;;;4897777;28;234596;-70
2023/09/19 09:05:52;;;;;;;17.77;3.35;;;17.40;99.90;;;;;;4950858;28;20043;-71
2023/09/19 09:08:21;;;;;;;15.25;3.30;;;17.60;99.90;;;;;;4907246;28;129331;-71
2023/09/19 09:10:48;;;;;;;19.80;3.38;;;17.50;99.90;;;;;;4957045;28;20066;-70
2023/09/19 09:13:15;;;;;;;16.88;3.25;;;17.50;99.90;;;;;;4902379;28;218112;-71
2023/09/19 09:15:42;;;;;;;15.68;2.90;;;17.30;99.90;;;;;;4934542;28;20055;-71
2023/09/19 09:18:08;;;;;;;17.17;3.23;;;17.50;99.90;;;;;;4903466;28;229737;-70
2023/09/19 09:20:35;;;;;;;14.80;2.80;;;17.80;99.90;;;;;;4949671;28;20063;-70
2023/09/19 09:23:03;;;;;;;20.83;3.83;;;18.00;99.90;;;;;;4897147;28;173559;-70
2023/09/19 09:25:54;;;;;;;14.27;3.28;;;18.20;99.90;;;;;;4944623;28;20058;-70
2023/09/19 09:28:25;;;;;;;17.00;3.35;;;18.60;99.90;;;;;;4905577;28;25059;-70
2023/09/19 09:30:51;;;;;;;12.32;2.53;;;18.50;99.90;;;;;;4950962;28;20047;-70
2023/09/19 09:33:18;;;;;;;15.60;2.88;;;18.20;99.90;;;;;;4912327;28;103868;-70
2023/09/19 09:35:52;;;;;;;14.35;2.67;;;18.30;99.90;;;;;;4958618;28;20051;-69
2023/09/19 09:38:32;;;;;;;16.92;3.55;;;18.50;99.90;;;;;;4918266;28;156194;-70
2023/09/19 09:41:06;;;;;;;13.90;2.88;;;18.70;99.90;;;;;;4978395;28;20069;-69
2023/09/19 09:43:41;;;;;;;15.60;2.65;;;18.80;99.90;;;;;;4919837;28;204379;-71
2023/09/19 09:46:30;;;;;;;15.20;2.72;;;18.80;99.90;;;;;;4973886;28;20047;-70
2023/09/19 09:49:19;;;;;;;13.38;2.85;;;18.70;99.90;;;;;;4916381;28;33481;-70
2023/09/19 09:52:06;;;;;;;16.75;2.92;;;18.60;99.90;;;;;;4928821;28;20607;-70
2023/09/19 09:54:36;;;;;;;16.63;3.17;;;18.80;99.90;;;;;;4895987;28;95820;-71
2023/09/19 09:57:25;;;;;;;16.83;3.17;;;18.90;99.90;;;;;;4945784;28;20074;-70
2023/09/19 09:59:58;;;;;;;13.27;2.50;;;19.10;99.90;;;;;;4904333;28;107174;-70
2023/09/19 10:02:40;;;;;;;19.10;3.50;;;19.30;99.90;;;;;;4949644;28;20574;-69
2023/09/19 10:08:04;;;;;;;15.05;3.20;;;19.20;99.90;;;;;;4921362;28;20549;-70
2023/09/19 10:13:17;;;;;;;16.05;2.80;;;19.30;99.90;;;;;;4905185;28;221286;-71
2023/09/19 10:15:50;;;;;;;15.50;3.15;;;19.10;99.90;;;;;;4942821;28;20063;-69
2023/09/19 10:18:24;;;;;;;14.25;2.97;;;19.40;99.90;;;;;;4910652;28;30851;-70
2023/09/19 10:20:50;;;;;;;13.60;2.75;;;19.70;99.90;;;;;;4946473;28;20066;-71
2023/09/19 10:23:23;;;;;;;18.30;3.20;;;20.10;99.90;;;;;;4916088;28;115771;-70
2023/09/19 10:25:51;;;;;;;16.27;3.05;;;19.80;99.70;;;;;;4937214;28;20051;-71
2023/09/19 10:28:21;;;;;;;15.02;3.15;;;19.30;99.90;;;;;;4906379;28;176438;-71
2023/09/19 10:30:52;;;;;;;15.60;2.70;;;19.40;99.90;;;;;;4966733;28;20061;-70
2023/09/19 10:33:26;;;;;;;17.70;3.80;;;19.10;99.90;;;;;;4912096;28;238741;-69
2023/09/19 10:35:57;;;;;;;20.10;3.30;;;18.80;99.90;;;;;;4957214;28;20055;-69
2023/09/19 10:38:24;;;;;;;16.42;4.03;;;18.90;99.90;;;;;;4903535;28;41607;-69
2023/09/19 10:40:59;;;;;;;17.00;3.40;;;19.00;99.90;;;;;;4941280;28;20059;-69
2023/09/19 10:43:30;;;;;;;14.10;2.72;;;18.80;99.90;;;;;;4903853;28;134741;-68
2023/09/19 10:46:03;;;;;;;16.60;3.03;;;18.50;99.90;;;;;;4947883;28;20047;-69
2023/09/19 10:48:31;;;;;;;14.18;3.28;;;18.70;99.90;;;;;;4904453;28;153867;-71
2023/09/19 10:51:04;;;;;;;18.63;3.40;;;19.00;99.90;;;;;;4950153;28;20058;-70
2023/09/19 10:53:50;;;;;;;15.90;3.30;;;19.20;99.90;;;;;;4881868;28;204620;-70
2023/09/19 10:56:27;;;;;;;15.15;3.30;;;18.90;99.90;;;;;;4938831;28;20066;-70
2023/09/19 10:59:15;;;;;;;17.42;2.95;;;18.90;99.90;;;;;;4905042;28;99294;-71
2023/09/19 11:01:53;;;;;;;14.25;3.00;;;19.00;99.90;;;;;;4948639;28;20070;-70
2023/09/19 11:04:24;;;;;;;15.02;3.42;;;19.20;99.90;;;;;;4890019;28;249586;-71
2023/09/19 11:07:14;;;;;;;14.68;3.08;;;19.10;99.90;;;;;;4921779;28;20055;-70
2023/09/19 11:09:46;;;;;;;14.97;3.17;;;18.70;99.90;;;;;;4896031;28;225514;-72
2023/09/19 11:12:36;;;;;;;14.88;2.92;;;18.80;99.90;;;;;;4944753;28;20051;-70
2023/09/19 11:15:11;;;;;;;17.55;2.95;;;18.70;99.90;;;;;;4895273;28;238333;-71
2023/09/19 11:17:52;;;;;;;14.50;2.95;;;18.50;99.90;;;;;;4917937;28;20063;-70
2023/09/19 11:20:24;;;;;;;14.45;2.80;;;18.30;99.90;;;;;;4930744;28;139008;-72
2023/09/19 11:22:51;;;;;;;15.52;2.80;;;18.20;99.90;;;;;;4920529;28;20063;-72
2023/09/19 11:25:29;;;;;;;16.25;3.10;;;18.70;99.90;;;;;;4942285;28;165324;-70
2023/09/19 11:28:08;;;;;;;14.23;3.28;;;18.80;99.90;;;;;;4911379;28;164779;-70
2023/09/19 11:30:43;;;;;;;22.48;3.30;;;18.70;99.90;;;;;;4948796;28;20433;-70
2023/09/19 11:33:38;;;;;;;16.93;2.87;;;18.80;99.90;;;;;;4902374;28;250223;-70
2023/09/19 11:36:24;;;;;;;15.23;3.22;;;18.80;99.90;;;;;;4943653;28;20066;-69
2023/09/19 11:38:50;;;;;;;18.05;2.95;;;18.60;99.90;;;;;;4899400;28;217021;-69
2023/09/19 11:41:25;;;;;;;17.55;3.30;;;18.60;99.90;;;;;;4942749;28;20701;-70
2023/09/19 11:43:56;;;;;;;14.65;3.00;;;18.90;99.90;;;;;;4901685;28;132353;-70
2023/09/19 11:46:22;;;;;;;14.13;2.75;;;19.20;99.90;;;;;;4924407;29;20081;-69
2023/09/19 11:48:49;;;;;;;14.15;2.90;;;19.20;99.90;;;;;;4902286;28;282101;-70
2023/09/19 11:51:27;;;;;;;14.82;2.55;;;19.20;99.90;;;;;;4951287;28;20055;-69
2023/09/19 11:53:59;;;;;;;14.25;2.63;;;18.90;99.90;;;;;;4897038;28;159837;-69
2023/09/19 11:56:31;;;;;;;16.20;2.85;;;18.90;99.90;;;;;;4944636;28;20051;-69
2023/09/19 11:58:58;;;;;;;13.30;2.63;;;18.70;99.90;;;;;;4901541;28;245016;-69
2023/09/19 12:01:28;;;;;;;11.20;2.10;;;18.60;99.90;;;;;;4947611;28;20062;-70
2023/09/19 12:03:59;;;;;;;14.23;2.70;;;18.60;99.90;;;;;;4901613;28;201745;-70
2023/09/19 12:06:27;;;;;;;14.93;2.67;;;18.50;99.90;;;;;;4923057;28;20043;-71
2023/09/19 12:08:59;;;;;;;13.07;2.60;;;18.50;99.90;;;;;;4911710;28;154800;-72
2023/09/19 12:11:33;;;;;;;12.85;2.70;;;18.60;99.90;;;;;;4942750;28;20469;-72
2023/09/19 12:14:00;;;;;;;13.25;2.55;;;18.40;99.90;;;;;;4911675;28;130267;-69
2023/09/19 12:16:30;;;;;;;13.93;2.70;;;18.30;99.90;;;;;;4947173;28;20572;-72
2023/09/19 12:18:57;;;;;;;17.45;2.75;;;18.20;99.90;;;;;;4918782;28;28068;-69
2023/09/19 12:21:36;;;;;;;12.75;2.33;;;18.20;99.90;;;;;;4955846;28;20506;-70
2023/09/19 12:24:04;;;;;;;14.52;2.63;;;18.10;99.90;;;;;;4891752;28;109857;-70
2023/09/19 12:26:39;;;;;;;16.95;2.70;;;18.10;99.90;;;;;;4949847;28;20055;-69
2023/09/19 12:29:05;;;;;;;15.75;2.67;;;18.10;99.90;;;;;;4914920;28;102584;-68
2023/09/19 12:31:36;;;;;;;17.63;2.65;;;18.00;99.90;;;;;;4950775;28;20074;-69
2023/09/19 12:34:02;;;;;;;15.35;2.83;;;18.10;99.90;;;;;;4916003;28;27036;-69
2023/09/19 12:36:29;;;;;;;12.00;2.20;;;18.30;99.90;;;;;;4939562;28;20066;-70
2023/09/19 12:38:59;;;;;;;16.15;2.67;;;18.40;99.90;;;;;;4899491;28;162588;-70
2023/09/19 12:41:26;;;;;;;15.10;2.28;;;18.60;99.90;;;;;;4947060;28;20063;-67
2023/09/19 12:43:54;;;;;;;14.07;2.28;;;18.60;99.90;;;;;;4885375;28;20334;-71
2023/09/19 12:46:26;;;;;;;13.70;2.53;;;18.70;99.90;;;;;;4939296;28;20055;-69
2023/09/19 12:49:18;;;;;;;14.75;2.38;;;18.80;99.90;;;;;;4905803;28;225608;-69
2023/09/19 12:51:47;;;;;;;14.00;2.05;;;18.70;99.90;;;;;;4950820;28;20077;-69
2023/09/19 12:54:20;;;;;;;13.95;2.30;;;18.70;99.90;;;;;;4897592;28;204989;-68